Latest Weather Observations for Canterbury

IDN60801

Issued at 9:32 pm EST Tuesday 21 April 2015 (issued every 30 minutes, with the page automatically refreshed every 10 minutes)

About weather observations | Map of weather stations | Latest weather observations for NSW | Other Formats
Station Details ID: 066194 Name: CANTERBURY RACECOURSE AWS Lat: -33.91 Lon: 151.11 Height: 3.0 m
Data from the previous 72 hours. | See also: Recent months at Canterbury
Date/Time
EST
Temp
°C
App
Temp
°C
Dew
Point
Rel
Hum
%
Delta-T
°C
Wind Press
QNH
hPa
Press
MSL
hPa
Rain
since 9 am
mm
Dir
 
Spd
km/h
Gust
km/h
Spd
kts
Gust
kts
21/09:30pm 13.3 8.3 12.2 93 0.6 S 30 50 16 27 - - 25.8
21/09:00pm 12.8 7.7 11.9 94 0.5 S 30 48 16 26 - - 25.0
21/08:30pm 12.6 6.7 11.3 92 0.7 S 33 59 18 32 - - 24.0
21/08:06pm 12.9 7.3 11.5 91 0.7 S 32 56 17 30 - - 23.4
21/08:03pm 12.9 7.3 11.5 91 0.7 S 32 56 17 30 - - 23.2
21/08:00pm 12.8 7.2 11.4 91 0.7 S 32 56 17 30 - - 23.2
21/07:30pm 13.0 6.8 11.4 90 0.8 S 35 56 19 30 - - 23.0
21/07:12pm 13.1 6.5 11.2 88 1.0 S 37 63 20 34 - - 22.4
21/07:09pm 13.2 7.0 11.3 88 1.0 S 35 63 19 34 - - 22.2
21/07:00pm 13.2 7.5 11.8 91 0.7 S 33 57 18 31 - - 22.0
21/06:52pm 13.0 7.5 11.7 92 0.7 S 32 54 17 29 - - 21.8
21/06:33pm 12.6 6.7 11.0 90 0.8 S 33 67 18 36 - - 21.8
21/06:30pm 12.6 6.7 11.0 90 0.8 S 33 67 18 36 - - 21.8
21/06:00pm 12.8 6.7 11.7 93 0.6 S 35 61 19 33 - - 20.4
21/05:30pm 12.7 6.0 11.1 90 0.8 S 37 59 20 32 - - 18.4
21/05:04pm 12.7 7.8 11.3 91 0.7 S 28 46 15 25 - - 16.4
21/05:00pm 12.7 8.2 11.3 91 0.7 S 26 43 14 23 - - 16.0
21/04:36pm 12.8 7.9 11.4 91 0.7 S 28 56 15 30 - - 14.4
21/04:30pm 12.8 8.3 11.5 92 0.7 S 26 54 14 29 - - 14.0
21/04:00pm 12.9 7.4 10.4 85 1.3 S 30 56 16 30 - - 12.0
21/03:33pm 13.0 7.5 10.7 86 1.2 S 30 59 16 32 - - 11.4
21/03:30pm 13.0 8.8 11.1 88 1.0 S 24 41 13 22 - - 11.4
21/03:00pm 13.2 7.3 10.6 84 1.4 S 32 56 17 30 - - 10.6
21/02:55pm 13.2 7.3 10.6 84 1.4 S 32 56 17 30 - - 10.6
21/02:40pm 13.4 6.7 10.9 85 1.3 S 37 61 20 33 - - 10.4
21/02:30pm 13.5 7.2 11.2 86 1.2 S 35 65 19 35 - - 10.4
21/02:00pm 13.3 7.7 11.5 89 1.0 S 32 50 17 27 - - 10.0
21/01:33pm 13.5 7.2 11.2 86 1.2 S 35 54 19 29 - - 9.6
21/01:30pm 13.5 7.6 11.0 85 1.3 S 33 54 18 29 - - 9.4
21/01:17pm 13.7 7.8 11.0 84 1.4 S 33 59 18 32 - - 9.4
21/01:00pm 13.6 7.0 11.5 87 1.1 SSE 37 61 20 33 - - 9.4
21/12:30pm 13.1 7.6 11.7 91 0.7 SSE 32 52 17 28 - - 8.4
21/12:00pm 13.4 6.4 11.3 87 1.1 SSE 39 69 21 37 - - 7.0
21/11:30am 13.4 7.9 12.0 91 0.8 SSE 32 52 17 28 - - 5.8
21/11:00am 13.3 7.6 11.9 91 0.7 SSE 33 56 18 30 - - 4.8
21/10:31am 13.5 7.8 11.7 89 1.0 SSE 33 54 18 29 - - 3.2
21/10:30am 13.5 7.8 11.7 89 1.0 SSE 33 50 18 27 - - 3.0
21/10:00am 13.6 7.5 11.8 89 1.0 SSE 35 67 19 36 - - 2.2
21/09:30am 14.0 8.3 11.9 87 1.1 SSE 33 52 18 28 - - 1.2
21/09:00am 13.9 8.5 12.3 90 0.9 SSE 32 54 17 29 - - 123.0
21/08:30am 13.5 7.4 11.7 89 1.0 S 35 54 19 29 - - 121.8
21/08:00am 13.7 7.0 11.0 84 1.4 SSE 37 61 20 33 - - 119.2
21/07:30am 13.7 7.4 11.2 85 1.3 SSE 35 67 19 36 - - 118.0
21/07:00am 13.7 7.8 11.0 84 1.4 SSE 33 59 18 32 - - 116.4
21/06:30am 13.3 7.7 11.4 88 1.0 SSE 32 65 17 35 - - 115.6
21/06:00am 13.3 7.6 11.0 86 1.2 SSE 32 56 17 30 - - 114.0
21/05:30am 13.7 7.1 11.2 85 1.3 SSE 37 61 20 33 - - 111.8
21/05:02am 13.8 8.1 11.8 88 1.1 SSE 33 54 18 29 - - 110.6
21/05:00am 13.8 8.2 12.0 89 1.0 SSE 33 50 18 27 - - 110.6
21/04:30am 13.4 7.4 12.0 91 0.8 SSE 35 61 19 33 - - 108.6
21/04:00am 13.7 8.4 12.4 92 0.7 S 32 52 17 28 - - 104.6
21/03:30am 13.7 8.9 12.8 94 0.5 SSE 30 48 16 26 - - 101.8
21/03:00am 13.6 8.2 12.2 91 0.8 SSE 32 57 17 31 - - 96.2
21/02:30am 13.9 7.9 12.1 89 1.0 SSE 35 59 19 32 - - 93.4
21/02:00am 14.2 8.1 11.7 85 1.3 SSE 35 69 19 37 - - 91.6
21/01:30am 14.2 7.9 12.2 88 1.1 SSE 37 63 20 34 - - 90.6
21/01:00am 14.4 8.5 12.3 87 1.1 SSE 35 59 19 32 - - 88.8
21/12:30am 14.3 8.9 12.7 90 0.9 S 33 57 18 31 - - 87.4
21/12:00am 14.3 8.6 12.9 91 0.8 S 35 59 19 32 - - 86.6
 
Date/Time
EST
Temp
°C
App
Temp
°C
Dew
Point
Rel
Hum
%
Delta-T
°C
Wind Press
QNH
hPa
Press
MSL
hPa
Rain
since 9 am
mm
Dir
 
Spd
km/h
Gust
km/h
Spd
kts
Gust
kts
20/11:30pm 14.2 9.6 13.4 95 0.4 SSE 30 52 16 28 - - 84.8
20/11:00pm 14.0 9.3 13.1 94 0.5 SSE 30 59 16 32 - - 79.6
20/10:31pm 14.3 9.9 12.9 91 0.8 S 28 48 15 26 - - 74.2
20/10:30pm 14.3 9.9 13.0 92 0.7 S 28 44 15 24 - - 74.2
20/10:00pm 14.4 9.4 13.4 94 0.6 SSE 32 54 17 29 - - 71.8
20/09:30pm 14.4 10.2 13.6 95 0.4 SSE 28 46 15 25 - - 67.6
20/09:02pm 14.7 9.7 13.9 95 0.4 SSE 33 57 18 31 - - 64.4
20/09:00pm 14.7 9.3 13.9 95 0.4 SSE 35 50 19 27 - - 64.4
20/08:30pm 14.5 9.5 13.9 96 0.3 SSE 33 57 18 31 - - 62.4
20/08:00pm 14.2 9.3 13.7 97 0.3 SSE 32 52 17 28 - - 58.2
20/07:30pm 14.4 9.4 14.1 98 0.2 SSE 33 61 18 33 - - 54.2
20/07:00pm 14.6 10.2 14.1 97 0.3 SSE 30 54 16 29 - - 45.4
20/06:30pm 14.6 9.6 14.0 96 0.3 SSE 33 63 18 34 - - 40.0
20/06:00pm 14.8 8.4 14.2 96 0.3 SSE 41 69 22 37 - - 36.6
20/05:30pm 14.9 8.7 13.9 94 0.6 SSE 39 67 21 36 - - 31.0
20/05:00pm 14.9 10.0 14.3 96 0.3 SSE 33 56 18 30 - - 28.0
20/04:30pm 14.8 10.1 14.2 96 0.3 SSE 32 61 17 33 - - 24.8
20/04:00pm 15.5 10.2 14.2 92 0.7 SSE 35 56 19 30 - - 20.0
20/03:52pm 15.5 10.7 14.0 91 0.8 SSE 32 56 17 30 - - 19.8
20/03:47pm 15.5 10.8 14.2 92 0.7 SSE 32 54 17 29 - - 19.6
20/03:30pm 15.3 10.6 14.3 94 0.6 SSE 32 56 17 30 - - 19.6
20/03:09pm 15.3 10.2 13.7 90 0.9 SSE 33 56 18 30 - - 17.8
20/03:00pm 15.6 11.2 14.1 91 0.8 SSE 30 57 16 31 - - 17.6
20/02:51pm 15.6 10.8 14.1 91 0.8 SSE 32 50 17 27 - - 17.4
20/02:47pm 15.7 10.8 14.2 91 0.9 SSE 33 50 18 27 - - 17.2
20/02:30pm 15.4 10.5 14.4 94 0.6 SSE 33 59 18 32 - - 17.2
20/02:04pm 15.4 11.6 14.6 95 0.5 SSE 28 50 15 27 - - 15.8
20/02:00pm 15.3 11.8 14.5 95 0.5 SSE 26 44 14 24 - - 15.4
20/01:52pm 15.4 11.6 14.6 95 0.5 SSE 28 46 15 25 - - 14.6
20/01:30pm 15.0 12.4 13.9 93 0.6 S 20 35 11 19 - - 10.4
20/01:26pm 15.0 12.0 13.7 92 0.7 S 22 35 12 19 - - 10.4
20/01:24pm 15.0 11.6 13.7 92 0.7 SSE 24 35 13 19 - - 10.2
20/01:12pm 14.9 10.7 13.4 91 0.8 SSE 28 54 15 29 - - 9.8
20/01:05pm 15.2 12.6 13.9 92 0.7 SSE 20 35 11 19 - - 9.6
20/01:03pm 15.2 12.6 13.9 92 0.7 SSE 20 35 11 19 - - 9.2
20/01:00pm 15.2 11.9 13.9 92 0.7 SSE 24 43 13 23 - - 9.2
20/12:43pm 15.2 11.8 13.7 91 0.8 S 24 43 13 23 - - 8.8
20/12:30pm 15.1 10.9 13.5 90 0.9 S 28 54 15 29 - - 8.4
20/12:27pm 15.1 10.9 13.5 90 0.9 S 28 54 15 29 - - 8.4
20/12:11pm 15.1 11.3 13.6 91 0.8 S 26 43 14 23 - - 8.0
20/12:00pm 15.0 12.4 13.9 93 0.6 S 20 35 11 19 - - 8.0
20/11:30am 14.7 12.1 13.7 94 0.6 S 20 33 11 18 - - 6.8
20/11:00am 14.4 10.9 13.4 94 0.6 S 24 43 13 23 - - 5.6
20/10:32am 14.0 10.8 13.1 94 0.5 S 22 33 12 18 - - 4.2
20/10:30am 13.8 10.1 12.7 93 0.6 S 24 37 13 20 - - 4.0
20/10:23am 13.7 9.5 12.4 92 0.7 S 26 37 14 20 - - 3.8
20/10:00am 13.8 10.5 12.9 94 0.5 S 22 35 12 19 - - 2.8
20/09:37am 13.9 11.9 12.8 93 0.6 S 15 26 8 14 - - 0.6
20/09:30am 13.9 12.0 13.0 94 0.5 S 15 26 8 14 - - 0.4
20/09:01am 13.2 10.2 12.1 93 0.6 S 19 32 10 17 - - 0.0
20/09:00am 13.1 10.1 12.0 93 0.6 S 19 32 10 17 - - 5.4
20/08:33am 12.9 9.6 11.5 91 0.7 S 20 32 11 17 - - 4.4
20/08:30am 13.0 9.6 11.4 90 0.8 S 20 32 11 17 - - 4.4
20/08:00am 12.6 10.1 11.2 91 0.7 SSW 15 26 8 14 - - 4.2
20/07:34am 12.2 8.9 10.8 91 0.7 SSW 19 32 10 17 - - 3.8
20/07:30am 12.2 8.9 10.8 91 0.7 SSW 19 30 10 16 - - 3.8
20/07:12am 11.8 9.5 10.4 91 0.7 SSW 13 22 7 12 - - 3.0
20/07:00am 11.9 9.6 10.3 90 0.8 WSW 13 22 7 12 - - 2.4
20/06:30am 11.9 8.4 10.3 90 0.8 SSW 19 33 10 18 - - 1.4
20/06:00am 11.9 9.1 10.1 89 0.9 SW 15 22 8 12 - - 1.0
20/05:30am 11.9 9.0 9.8 87 1.1 SW 15 24 8 13 - - 0.0
20/05:00am 11.9 8.2 9.3 84 1.3 SSW 19 30 10 16 - - 0.0
20/04:30am 11.9 7.9 8.9 82 1.5 SSW 20 39 11 21 - - 0.0
20/04:00am 12.1 8.6 8.9 81 1.6 SSW 17 28 9 15 - - 0.0
20/03:30am 11.9 8.8 8.9 82 1.5 SW 15 24 8 13 - - 0.0
20/03:00am 12.0 7.9 8.8 81 1.6 SSW 20 33 11 18 - - 0.0
20/02:30am 12.2 8.7 8.7 79 1.7 SSW 17 30 9 16 - - 0.0
20/02:00am 12.1 8.6 8.6 79 1.7 SSW 17 28 9 15 - - 0.0
20/01:30am 12.3 8.2 8.8 79 1.7 SSW 20 33 11 18 - - 0.0
20/01:00am 12.3 8.9 9.1 81 1.6 SW 17 28 9 15 - - 0.0
20/12:30am 12.3 8.9 9.1 81 1.6 SW 17 24 9 13 - - 0.0
20/12:00am 12.6 9.1 8.7 77 1.9 SW 17 24 9 13 - - 0.0
 
Date/Time
EST
Temp
°C
App
Temp
°C
Dew
Point
Rel
Hum
%
Delta-T
°C
Wind Press
QNH
hPa
Press
MSL
hPa
Rain
since 9 am
mm
Dir
 
Spd
km/h
Gust
km/h
Spd
kts
Gust
kts
19/11:30pm 12.9 9.4 8.8 76 2.1 SSW 17 30 9 16 - - 0.0
19/11:00pm 13.1 9.9 8.4 73 2.3 SSW 15 24 8 13 - - 0.0
19/10:30pm 13.3 9.8 8.6 73 2.4 SSW 17 28 9 15 - - 0.0
19/10:00pm 13.5 9.7 9.0 74 2.3 SSW 19 30 10 16 - - 0.0
19/09:30pm 13.7 10.4 8.1 69 2.8 SSW 15 22 8 12 - - 0.0
19/09:00pm 13.6 10.2 7.8 68 2.9 SW 15 24 8 13 - - 0.0
19/08:30pm 13.5 10.1 7.7 68 2.9 SW 15 33 8 18 - - 0.0
19/08:00pm 13.6 9.3 8.0 69 2.8 SSW 20 33 11 18 - - 0.0
19/07:30pm 13.9 9.3 8.3 69 2.8 S 22 39 12 21 - - 0.0
19/07:00pm 13.9 9.4 8.5 70 2.7 S 22 43 12 23 - - 0.0
19/06:30pm 14.0 9.2 8.8 71 2.6 S 24 39 13 21 - - 0.0
19/06:10pm 14.5 9.1 9.5 72 2.6 SSE 28 50 15 27 - - 0.0
19/06:00pm 14.9 11.2 10.1 73 2.5 SSE 20 37 11 20 - - 0.0
19/05:30pm 15.4 9.6 9.5 68 3.0 SSE 30 48 16 26 - - 0.0
19/05:08pm 16.0 10.5 9.2 64 3.5 SSE 28 50 15 27 - - 0.0
19/05:00pm 16.2 11.4 8.9 62 3.7 SSE 24 50 13 27 - - 0.0
19/04:30pm 16.9 11.3 10.1 64 3.6 SSE 30 43 16 23 - - 0.0
19/04:00pm 16.9 11.8 10.7 67 3.3 SSE 28 46 15 25 - - 0.0
19/03:35pm 16.7 11.7 11.0 69 3.1 SSE 28 46 15 25 - - 0.0
19/03:30pm 17.0 12.2 11.7 71 2.9 S 28 41 15 22 - - 0.0
19/03:08pm 16.9 11.8 11.8 72 2.8 SSE 30 50 16 27 - - 0.0
19/03:00pm 17.7 13.7 11.9 69 3.2 S 24 43 13 23 - - 0.0
19/02:39pm 17.5 12.6 11.3 67 3.4 SSE 28 48 15 26 - - 0.0
19/02:30pm 17.9 13.5 11.7 67 3.4 SSE 26 39 14 21 - - 0.0
19/02:00pm 17.4 13.3 12.7 74 2.6 SSE 26 37 14 20 - - 0.0
19/01:30pm 17.8 14.0 12.3 70 3.0 S 24 33 13 18 - - 0.0
19/01:00pm 19.3 15.4 13.2 68 3.5 S 26 43 14 23 - - 0.0
19/12:30pm 18.8 15.8 12.5 67 3.5 SSE 20 33 11 18 - - 0.0
19/12:00pm 18.8 15.4 12.5 67 3.5 SSE 22 35 12 19 - - 0.0
19/11:30am 21.4 20.0 12.3 56 5.1 SW 11 20 6 11 - - 0.0
19/11:00am 19.3 16.8 9.8 54 5.1 WSW 13 22 7 12 - - 0.0
19/10:30am 19.4 16.1 9.6 53 5.2 WSW 17 26 9 14 - - 0.0
19/10:00am 18.9 15.5 9.1 53 5.1 WSW 17 26 9 14 - - 0.0
19/09:30am 18.7 14.9 8.9 53 5.1 WSW 19 28 10 15 - - 0.0
19/09:00am 17.9 14.0 8.5 54 4.8 WSW 19 30 10 16 - - 2.4
19/08:30am 17.0 13.9 11.5 70 3.0 WSW 19 26 10 14 - - 2.4
19/08:00am 16.4 16.3 16.1 98 0.2 WSW 11 17 6 9 - - 2.4
19/07:30am 15.2 16.8 15.0 99 0.1 CALM 0 6 0 3 - - 2.4
19/07:00am 14.6 15.9 14.1 97 0.3 CALM 0 0 0 0 - - 2.4
19/06:30am 14.6 16.0 14.3 98 0.2 CALM 0 0 0 0 - - 2.4
19/06:00am 15.2 16.7 14.7 97 0.3 CALM 0 0 0 0 - - 2.4
19/05:30am 15.5 17.0 14.7 95 0.5 CALM 0 0 0 0 - - 2.4
19/05:00am 16.1 17.8 15.3 95 0.5 CALM 0 0 0 0 - - 2.4
19/04:30am 15.9 17.6 15.1 95 0.5 CALM 0 0 0 0 - - 2.4
19/04:00am 16.4 18.1 15.3 93 0.6 CALM 0 6 0 3 - - 2.4
19/03:30am 16.6 18.0 15.3 92 0.8 NW 2 6 1 3 - - 2.4
19/03:00am 16.8 18.2 15.5 92 0.8 W 2 6 1 3 - - 2.4
19/02:30am 16.9 18.0 15.6 92 0.8 NW 4 7 2 4 - - 2.4
19/02:00am 17.1 17.8 15.6 91 0.9 N 6 9 3 5 - - 2.4
19/01:30am 17.2 17.9 15.7 91 0.9 N 6 9 3 5 - - 2.2
19/01:00am 17.4 18.0 15.7 90 1.0 NNW 7 9 4 5 - - 2.2
19/12:30am 17.5 18.1 15.7 89 1.1 NNW 7 13 4 7 - - 1.8
19/12:00am 17.6 17.7 15.6 88 1.2 NW 9 13 5 7 - - 1.6
 
Date/Time
EST
Temp
°C
App
Temp
°C
Dew
Point
Rel
Hum
%
Delta-T
°C
Wind Press
QNH
hPa
Press
MSL
hPa
Rain
since 9 am
mm
Dir
 
Spd
km/h
Gust
km/h
Spd
kts
Gust
kts
18/11:30pm 17.6 18.0 15.4 87 1.3 NNW 7 11 4 6 - - 1.2
18/11:00pm 18.1 17.9 14.8 81 1.9 NNW 9 15 5 8 - - 0.6
18/10:30pm 18.7 17.7 14.6 77 2.4 N 13 20 7 11 - - 0.2
18/10:00pm 18.4 16.0 14.3 77 2.4 N 20 32 11 17 - - 0.2
18/09:45pm 19.4 15.3 13.8 70 3.2 NNW 28 46 15 25 - - 0.2

Other Formats:

Comma delimited format used in spreadsheet applications
http://www.bom.gov.au/fwo/IDN60801/IDN60801.94766.axf

JavaScript Object Notation format (JSON) in row-major order
http://www.bom.gov.au/fwo/IDN60801/IDN60801.94766.json